createdAt,value
2023-03-27T00:00:23.107Z,4.49
2023-03-27T00:02:57.679Z,4.39
2023-03-27T00:05:31.462Z,4.29
2023-03-27T00:08:05.332Z,4.26
2023-03-27T00:10:39.662Z,4.23
2023-03-27T00:13:13.739Z,4.20
2023-03-27T00:15:47.358Z,4.23
2023-03-27T00:18:20.513Z,4.24
2023-03-27T00:20:54.972Z,4.22
2023-03-27T00:23:29.642Z,4.21
2023-03-27T00:26:03.235Z,4.20
2023-03-27T00:28:37.221Z,4.17
2023-03-27T00:31:14.647Z,4.16
2023-03-27T00:33:48.446Z,4.19
2023-03-27T00:36:22.126Z,4.20
2023-03-27T00:38:55.590Z,4.19
2023-03-27T00:41:29.130Z,4.16
2023-03-27T00:44:04.472Z,4.11
2023-03-27T00:46:41.912Z,4.08
2023-03-27T00:49:17.124Z,4.05
2023-03-27T00:51:53.179Z,4.03
2023-03-27T00:54:30.163Z,4.03
2023-03-27T00:57:07.361Z,3.99
2023-03-27T00:59:43.457Z,3.98
2023-03-27T01:02:18.552Z,3.96
2023-03-27T01:04:52.742Z,3.97
2023-03-27T01:07:26.316Z,3.96
2023-03-27T01:10:01.303Z,3.96
2023-03-27T01:12:41.133Z,3.97
2023-03-27T01:15:27.122Z,3.94
2023-03-27T01:18:19.198Z,3.92
2023-03-27T01:21:36.319Z,3.91
2023-03-27T01:24:20.002Z,3.92
2023-03-27T01:27:12.881Z,3.96
2023-03-27T01:30:05.447Z,3.93
2023-03-27T01:33:12.326Z,3.93
2023-03-27T01:36:02.437Z,3.93
2023-03-27T01:39:24.904Z,3.91
2023-03-27T01:42:01.779Z,3.94
2023-03-27T01:44:45.185Z,3.97
2023-03-27T01:47:20.352Z,3.91
2023-03-27T01:49:57.791Z,3.90
2023-03-27T01:52:34.236Z,3.89
2023-03-27T01:55:11.782Z,3.89
2023-03-27T01:57:50.138Z,3.90
2023-03-27T02:00:27.462Z,3.92
2023-03-27T02:03:07.843Z,3.93
2023-03-27T02:05:45.685Z,3.91
2023-03-27T02:08:22.398Z,3.89
2023-03-27T02:10:59.840Z,3.95
2023-03-27T02:13:39.068Z,3.96
2023-03-27T02:16:15.761Z,3.91
2023-03-27T02:18:54.374Z,3.87
2023-03-27T02:21:28.047Z,3.90
2023-03-27T02:24:05.930Z,3.97
2023-03-27T02:26:39.711Z,3.98
2023-03-27T02:29:39.225Z,3.95
2023-03-27T02:32:19.868Z,3.94
2023-03-27T02:35:23.926Z,3.94
2023-03-27T02:38:02.635Z,3.96
2023-03-27T02:40:46.423Z,4.01
2023-03-27T02:43:40.451Z,4.02
2023-03-27T02:46:18.314Z,3.98
2023-03-27T02:48:54.228Z,3.97
2023-03-27T02:51:31.039Z,4.00
2023-03-27T02:54:07.654Z,4.00
2023-03-27T02:56:44.858Z,4.05
2023-03-27T02:59:23.599Z,4.05
2023-03-27T03:01:57.406Z,4.06
2023-03-27T03:04:35.213Z,4.09
2023-03-27T03:07:18.981Z,4.12
2023-03-27T03:09:53.150Z,4.00
2023-03-27T03:12:26.506Z,3.95
2023-03-27T03:15:00.602Z,3.93
2023-03-27T03:17:35.659Z,3.92
2023-03-27T03:20:12.450Z,3.93
2023-03-27T03:22:46.674Z,3.86
2023-03-27T03:25:21.695Z,3.84
2023-03-27T03:27:57.550Z,3.84
2023-03-27T03:30:32.040Z,3.88
2023-03-27T03:33:07.359Z,3.91
2023-03-27T03:35:43.361Z,3.94
2023-03-27T03:38:23.697Z,3.94
2023-03-27T03:40:58.455Z,3.99
2023-03-27T03:43:32.899Z,4.00
2023-03-27T03:46:06.954Z,4.00
2023-03-27T03:48:41.652Z,4.00
2023-03-27T03:51:16.380Z,3.97
2023-03-27T03:53:49.987Z,3.95
2023-03-27T03:56:23.132Z,3.89
2023-03-27T03:58:57.043Z,3.85
2023-03-27T04:01:30.871Z,3.83
2023-03-27T04:04:08.446Z,3.84
2023-03-27T04:07:04.442Z,3.86
2023-03-27T04:09:39.252Z,3.79
2023-03-27T04:12:17.121Z,3.75
2023-03-27T04:14:55.346Z,3.74
2023-03-27T04:17:49.434Z,3.75
2023-03-27T04:20:24.904Z,3.68
2023-03-27T04:23:01.547Z,3.69
2023-03-27T04:25:35.325Z,3.70
2023-03-27T04:28:10.423Z,3.77
2023-03-27T04:30:48.212Z,3.81
2023-03-27T04:33:26.048Z,3.83
2023-03-27T04:36:07.956Z,3.83
2023-03-27T04:38:44.335Z,3.77
2023-03-27T04:41:19.313Z,3.83
2023-03-27T04:43:52.866Z,3.94
2023-03-27T04:46:26.555Z,3.97
2023-03-27T04:49:01.649Z,4.03
2023-03-27T04:51:41.088Z,4.14
2023-03-27T04:54:14.841Z,4.21
2023-03-27T04:56:49.993Z,4.23
2023-03-27T04:59:23.666Z,4.25
2023-03-27T05:01:58.764Z,4.29
2023-03-27T05:04:36.472Z,4.41
2023-03-27T05:07:13.094Z,4.57
2023-03-27T05:09:47.490Z,4.67
2023-03-27T05:12:21.133Z,4.69
2023-03-27T05:14:56.284Z,4.70
2023-03-27T05:17:32.704Z,4.62
2023-03-27T05:20:08.517Z,4.54
2023-03-27T05:22:42.056Z,4.46
2023-03-27T05:25:17.268Z,4.44
2023-03-27T05:27:52.363Z,4.40
2023-03-27T05:30:27.332Z,4.37
2023-03-27T05:33:08.158Z,4.31
2023-03-27T05:35:45.528Z,4.22
2023-03-27T05:38:20.207Z,4.22
2023-03-27T05:40:55.269Z,4.27
2023-03-27T05:43:29.600Z,4.27
2023-03-27T05:46:03.170Z,4.32
2023-03-27T05:48:38.764Z,4.36
2023-03-27T05:51:12.536Z,4.37
2023-03-27T05:53:46.162Z,4.42
2023-03-27T05:56:27.223Z,4.53
2023-03-27T05:59:02.426Z,4.60
2023-03-27T06:01:37.604Z,4.60
2023-03-27T06:04:12.550Z,4.63
2023-03-27T06:06:47.590Z,4.70
2023-03-27T06:09:20.707Z,4.74
2023-03-27T06:11:55.949Z,4.76
2023-03-27T06:14:29.688Z,4.85
2023-03-27T06:17:06.556Z,4.92
2023-03-27T06:19:50.656Z,4.98
2023-03-27T06:22:24.095Z,5.05
2023-03-27T06:24:58.069Z,5.05
2023-03-27T06:27:32.248Z,5.08
2023-03-27T06:30:07.280Z,5.02
2023-03-27T06:32:47.293Z,4.93
2023-03-27T06:35:21.941Z,4.90
2023-03-27T06:38:03.744Z,4.86
2023-03-27T06:40:38.344Z,4.88
2023-03-27T06:43:12.235Z,4.79
2023-03-27T06:45:51.700Z,4.79
2023-03-27T06:48:26.991Z,4.67
2023-03-27T06:51:02.091Z,4.69
2023-03-27T06:53:38.073Z,4.71
2023-03-27T06:56:13.509Z,4.77
2023-03-27T06:59:04.899Z,4.84
2023-03-27T07:01:38.325Z,4.91
2023-03-27T07:04:22.614Z,5.05
2023-03-27T07:06:57.663Z,5.18
2023-03-27T07:09:32.094Z,5.44
2023-03-27T07:12:09.124Z,5.88
2023-03-27T07:14:43.931Z,6.69
2023-03-27T07:17:17.397Z,6.97
2023-03-27T07:19:55.685Z,7.03
2023-03-27T07:22:35.615Z,7.04
2023-03-27T07:25:13.077Z,6.75
2023-03-27T07:27:48.186Z,6.66
2023-03-27T07:30:22.255Z,6.67
2023-03-27T07:32:55.867Z,6.69
2023-03-27T07:35:30.390Z,6.66
2023-03-27T07:38:05.574Z,6.55
2023-03-27T07:40:46.475Z,6.39
2023-03-27T07:43:37.161Z,6.37
2023-03-27T07:46:11.286Z,6.38
2023-03-27T07:48:45.530Z,6.36
2023-03-27T07:51:20.995Z,6.44
2023-03-27T07:53:56.698Z,6.48
2023-03-27T07:56:33.521Z,6.51
2023-03-27T07:59:25.016Z,6.61
2023-03-27T08:01:59.127Z,6.83
2023-03-27T08:04:33.466Z,7.09
2023-03-27T08:07:10.185Z,7.26
2023-03-27T08:09:45.246Z,7.41
2023-03-27T08:12:19.766Z,7.49
2023-03-27T08:14:54.914Z,7.56
2023-03-27T08:17:31.017Z,7.65
2023-03-27T08:20:07.021Z,7.57
2023-03-27T08:22:42.497Z,7.54
2023-03-27T08:25:34.839Z,7.77
2023-03-27T08:28:09.811Z,7.90
2023-03-27T08:30:45.280Z,7.97
2023-03-27T08:33:19.660Z,7.89
2023-03-27T08:35:53.874Z,7.90
2023-03-27T08:38:31.040Z,7.89
2023-03-27T08:41:09.479Z,8.03
2023-03-27T08:43:46.319Z,8.26
2023-03-27T08:46:23.829Z,8.49
2023-03-27T08:49:01.983Z,8.65
2023-03-27T08:51:39.484Z,8.90
2023-03-27T08:54:16.671Z,8.90
2023-03-27T08:56:51.425Z,9.02
2023-03-27T08:59:27.744Z,9.27
2023-03-27T09:02:04.679Z,9.35
2023-03-27T09:04:42.128Z,9.40
2023-03-27T09:07:18.478Z,9.42
2023-03-27T09:09:58.438Z,9.54
2023-03-27T09:12:43.965Z,9.69
2023-03-27T09:15:22.099Z,9.48
2023-03-27T09:17:58.990Z,9.41
2023-03-27T09:20:35.501Z,9.48
2023-03-27T09:23:16.188Z,9.56
2023-03-27T09:26:11.285Z,9.51
2023-03-27T09:29:07.532Z,9.74
2023-03-27T09:31:47.038Z,10.12
2023-03-27T09:34:24.902Z,10.80
2023-03-27T09:36:59.715Z,11.63
2023-03-27T09:39:35.349Z,12.42
2023-03-27T09:42:18.800Z,12.61
2023-03-27T09:44:56.222Z,12.25
2023-03-27T09:47:34.640Z,11.76
2023-03-27T09:50:23.149Z,11.15
2023-03-27T09:53:12.173Z,10.82
2023-03-27T09:55:55.725Z,10.39
2023-03-27T09:58:36.582Z,9.91
2023-03-27T10:01:20.282Z,9.58
2023-03-27T10:03:57.378Z,9.35
2023-03-27T10:06:34.472Z,8.97
2023-03-27T10:09:23.700Z,8.65
2023-03-27T10:12:08.048Z,8.68
2023-03-27T10:14:44.438Z,8.97
2023-03-27T10:17:25.755Z,8.95
2023-03-27T10:20:08.106Z,9.08
2023-03-27T10:22:44.001Z,9.18
2023-03-27T10:25:21.887Z,9.26
2023-03-27T10:28:11.837Z,9.39
2023-03-27T10:30:47.216Z,9.53
2023-03-27T10:33:34.027Z,9.86
2023-03-27T10:36:15.491Z,10.34
2023-03-27T10:38:51.887Z,10.95
2023-03-27T10:41:39.361Z,11.87
2023-03-27T10:44:19.741Z,13.48
2023-03-27T10:46:58.274Z,13.64
2023-03-27T10:49:36.443Z,13.57
2023-03-27T10:52:17.443Z,13.57
2023-03-27T10:54:58.119Z,13.04
2023-03-27T10:57:34.368Z,13.01
2023-03-27T11:00:14.323Z,13.99
2023-03-27T11:02:52.916Z,15.74
2023-03-27T11:05:28.965Z,17.13
2023-03-27T11:08:05.875Z,16.95
2023-03-27T11:10:42.253Z,15.83
2023-03-27T11:13:20.933Z,15.19
2023-03-27T11:15:58.159Z,14.24
2023-03-27T11:18:39.217Z,13.45
2023-03-27T11:21:17.337Z,12.89
2023-03-27T11:23:55.976Z,12.36
2023-03-27T11:26:34.318Z,12.04
2023-03-27T11:29:14.143Z,11.90
2023-03-27T11:31:57.945Z,11.87
2023-03-27T11:34:38.770Z,11.86
2023-03-27T11:37:23.826Z,12.25
2023-03-27T11:40:01.812Z,12.46
2023-03-27T11:42:39.958Z,12.12
2023-03-27T11:45:17.485Z,11.54
2023-03-27T11:48:10.894Z,11.01
2023-03-27T11:50:50.522Z,10.71
2023-03-27T11:53:31.712Z,10.38
2023-03-27T11:56:26.964Z,10.19
2023-03-27T11:59:11.239Z,10.03
2023-03-27T12:01:54.663Z,9.76
2023-03-27T12:04:40.863Z,9.61
2023-03-27T12:07:36.102Z,9.32
2023-03-27T12:10:16.708Z,9.02
2023-03-27T12:14:03.405Z,8.78
2023-03-27T12:17:11.183Z,8.52
2023-03-27T12:20:22.466Z,8.38
2023-03-27T12:23:16.421Z,8.41
2023-03-27T12:26:11.244Z,8.34
2023-03-27T12:29:23.630Z,8.31
2023-03-27T12:32:20.032Z,8.33
2023-03-27T12:35:04.030Z,8.41
2023-03-27T12:37:50.041Z,8.49
2023-03-27T12:40:35.740Z,8.54
2023-03-27T12:43:26.761Z,8.53
2023-03-27T12:46:14.558Z,8.40
2023-03-27T12:49:00.551Z,8.26
2023-03-27T12:51:48.300Z,8.19
2023-03-27T12:54:28.416Z,8.07
2023-03-27T12:57:07.684Z,8.02
2023-03-27T12:59:43.456Z,7.99
2023-03-27T13:02:43.538Z,7.97
2023-03-27T13:05:42.662Z,7.90
2023-03-27T13:08:37.914Z,7.81
2023-03-27T13:11:21.146Z,7.72
2023-03-27T13:14:42.486Z,7.65
2023-03-27T13:17:29.407Z,7.63
2023-03-27T13:20:09.126Z,7.60
2023-03-27T13:22:50.366Z,7.68
2023-03-27T13:25:33.808Z,7.71
2023-03-27T13:31:14.818Z,8.26
2023-03-27T13:34:12.741Z,8.32
2023-03-27T13:36:50.673Z,8.47
2023-03-27T13:39:26.171Z,8.59
2023-03-27T13:42:10.159Z,8.77
2023-03-27T13:44:58.324Z,8.71
2023-03-27T13:47:54.152Z,8.70
2023-03-27T13:50:50.314Z,8.86
2023-03-27T13:53:36.389Z,8.98
2023-03-27T13:56:19.718Z,9.26
2023-03-27T13:59:47.358Z,9.42
2023-03-27T14:02:47.018Z,9.27
2023-03-27T14:05:42.583Z,9.05
2023-03-27T14:08:26.332Z,8.92
2023-03-27T14:11:22.518Z,8.87
2023-03-27T14:14:26.689Z,8.77
2023-03-27T14:17:30.464Z,8.65
2023-03-27T14:20:24.243Z,8.65
2023-03-27T14:23:03.061Z,8.65
2023-03-27T14:25:39.765Z,8.55
2023-03-27T14:28:34.799Z,8.48
2023-03-27T14:31:11.581Z,8.38
2023-03-27T14:34:04.848Z,8.30
2023-03-27T14:36:42.221Z,8.24
2023-03-27T14:39:24.608Z,8.18
2023-03-27T14:42:01.991Z,8.10
2023-03-27T14:44:37.050Z,8.05
2023-03-27T14:47:15.630Z,7.98
2023-03-27T14:49:53.981Z,7.93
2023-03-27T14:52:33.404Z,7.94
2023-03-27T14:55:11.270Z,7.92
2023-03-27T14:57:45.068Z,7.83
2023-03-27T15:00:24.174Z,7.82
2023-03-27T15:03:01.550Z,7.70
2023-03-27T15:05:36.470Z,7.64
2023-03-27T15:08:16.881Z,7.61
2023-03-27T15:10:55.728Z,7.52
2023-03-27T15:13:37.969Z,7.37
2023-03-27T15:16:21.043Z,7.27
2023-03-27T15:19:01.228Z,7.16
2023-03-27T15:21:41.514Z,7.05
2023-03-27T15:24:19.104Z,6.95
2023-03-27T15:26:54.978Z,6.82
2023-03-27T15:29:33.309Z,6.69
2023-03-27T15:32:09.141Z,6.55
2023-03-27T15:34:47.481Z,6.47
2023-03-27T15:37:23.649Z,6.44
2023-03-27T15:40:10.243Z,6.44
2023-03-27T15:42:52.190Z,6.42
2023-03-27T15:45:28.246Z,6.43
2023-03-27T15:48:05.730Z,6.44
2023-03-27T15:50:40.052Z,6.45
2023-03-27T15:53:13.451Z,6.47
2023-03-27T15:55:50.281Z,6.44
2023-03-27T15:58:26.795Z,6.47
2023-03-27T16:01:18.728Z,6.49
2023-03-27T16:03:39.288Z,6.49
2023-03-27T16:06:15.890Z,6.48
2023-03-27T16:08:49.159Z,6.48
2023-03-27T16:11:38.681Z,6.47
2023-03-27T16:14:26.298Z,6.46
2023-03-27T16:20:16.721Z,6.61
2023-03-27T16:22:51.353Z,6.45
2023-03-27T16:25:24.551Z,6.46
2023-03-27T16:27:58.836Z,6.44
2023-03-27T16:30:35.494Z,6.43
2023-03-27T16:33:15.837Z,6.41
2023-03-27T16:35:50.559Z,6.39
2023-03-27T16:38:24.140Z,6.36
2023-03-27T16:40:57.851Z,6.36
2023-03-27T16:43:31.572Z,6.33
2023-03-27T16:46:05.026Z,6.32
2023-03-27T16:48:38.269Z,6.30
2023-03-27T16:51:11.876Z,6.31
2023-03-27T16:53:45.512Z,6.32
2023-03-27T16:56:19.174Z,6.32
2023-03-27T16:58:52.720Z,6.30
2023-03-27T17:01:26.450Z,6.32
2023-03-27T17:04:00.157Z,6.31
2023-03-27T17:06:34.073Z,6.31
2023-03-27T17:09:08.347Z,6.28
2023-03-27T17:11:42.473Z,6.26
2023-03-27T17:14:16.728Z,6.23
2023-03-27T17:16:51.504Z,6.23
2023-03-27T17:19:25.066Z,6.18
2023-03-27T17:21:58.750Z,6.22
2023-03-27T17:24:40.176Z,6.21
2023-03-27T17:27:09.176Z,6.21
2023-03-27T17:29:42.700Z,6.19
2023-03-27T17:32:17.150Z,6.21
2023-03-27T17:34:52.460Z,6.22
2023-03-27T17:37:27.417Z,6.20
2023-03-27T17:40:00.956Z,6.22
2023-03-27T17:42:34.366Z,6.23
2023-03-27T17:45:09.428Z,6.24
2023-03-27T17:47:42.857Z,6.23
2023-03-27T17:50:16.314Z,6.24
2023-03-27T17:52:51.005Z,6.24
2023-03-27T17:55:24.504Z,6.23
2023-03-27T17:58:08.915Z,6.20
2023-03-27T18:00:35.557Z,6.19
2023-03-27T18:03:09.767Z,6.19
2023-03-27T18:05:44.597Z,6.17
2023-03-27T18:08:19.890Z,6.17
2023-03-27T18:10:53.521Z,6.18
2023-03-27T18:16:21.908Z,6.15
2023-03-27T18:18:55.803Z,6.15
2023-03-27T18:21:29.648Z,6.13
2023-03-27T18:24:03.561Z,6.14
2023-03-27T18:26:37.324Z,6.15
2023-03-27T18:29:11.659Z,6.14
2023-03-27T18:31:45.176Z,6.11
2023-03-27T18:34:18.683Z,6.08
2023-03-27T18:36:52.773Z,6.07
2023-03-27T18:39:26.356Z,6.06
2023-03-27T18:42:01.380Z,6.05
2023-03-27T18:44:36.541Z,6.03
2023-03-27T18:47:11.523Z,6.01
2023-03-27T18:49:46.146Z,6.02
2023-03-27T18:52:19.732Z,5.99
2023-03-27T18:54:53.497Z,5.96
2023-03-27T18:57:27.796Z,5.99
2023-03-27T19:00:01.481Z,5.96
2023-03-27T19:02:36.510Z,5.96
2023-03-27T19:05:13.064Z,5.93
2023-03-27T19:07:47.006Z,5.95
2023-03-27T19:10:21.933Z,5.96
2023-03-27T19:12:57.419Z,5.95
2023-03-27T19:15:51.769Z,5.93
2023-03-27T19:18:40.700Z,5.92
2023-03-27T19:21:22.272Z,5.92
2023-03-27T19:23:58.803Z,5.91
2023-03-27T19:26:35.783Z,5.89
2023-03-27T19:29:12.168Z,5.89
2023-03-27T19:31:46.223Z,5.91
2023-03-27T19:34:25.162Z,5.89
2023-03-27T19:36:56.154Z,5.89
2023-03-27T19:39:29.665Z,5.90
2023-03-27T19:42:03.204Z,5.90
2023-03-27T19:44:38.298Z,5.89
2023-03-27T19:47:12.237Z,5.91
2023-03-27T19:49:47.103Z,5.90
2023-03-27T19:52:22.878Z,5.88
2023-03-27T19:54:56.314Z,5.87
2023-03-27T19:57:30.340Z,5.90
2023-03-27T20:00:05.766Z,5.90
2023-03-27T20:02:41.115Z,5.91
2023-03-27T20:05:14.840Z,5.90
2023-03-27T20:07:48.194Z,5.88
2023-03-27T20:10:25.704Z,5.87
2023-03-27T20:12:59.430Z,5.89
2023-03-27T20:15:33.105Z,5.86
2023-03-27T20:18:07.211Z,5.84
2023-03-27T20:20:42.941Z,5.84
2023-03-27T20:23:18.899Z,5.81
2023-03-27T20:25:53.566Z,5.80
2023-03-27T20:28:28.044Z,5.79
2023-03-27T20:31:06.779Z,5.78
2023-03-27T20:33:40.173Z,5.78
2023-03-27T20:36:13.874Z,5.76
2023-03-27T20:38:47.429Z,5.77
2023-03-27T20:41:21.911Z,5.77
2023-03-27T20:43:55.604Z,5.75
2023-03-27T20:46:30.800Z,5.76
2023-03-27T20:49:05.860Z,5.75
2023-03-27T20:51:40.177Z,5.75
2023-03-27T20:54:14.257Z,5.75
2023-03-27T20:56:48.272Z,5.71
2023-03-27T20:59:23.194Z,5.70
2023-03-27T21:01:57.872Z,5.65
2023-03-27T21:04:32.785Z,5.63
2023-03-27T21:07:08.313Z,5.61
2023-03-27T21:09:41.943Z,5.58
2023-03-27T21:12:15.473Z,5.56
2023-03-27T21:14:49.097Z,5.54
2023-03-27T21:17:22.542Z,5.49
2023-03-27T21:19:56.109Z,5.36
2023-03-27T21:22:29.745Z,5.22
2023-03-27T21:25:03.153Z,5.08
2023-03-27T21:27:36.127Z,4.98
2023-03-27T21:30:12.924Z,4.91
2023-03-27T21:32:47.240Z,4.84
2023-03-27T21:35:21.093Z,4.76
2023-03-27T21:37:54.348Z,4.69
2023-03-27T21:40:28.076Z,4.63
2023-03-27T21:43:01.886Z,4.56
2023-03-27T21:45:35.883Z,4.51
2023-03-27T21:48:10.907Z,4.45
2023-03-27T21:50:45.384Z,4.39
2023-03-27T21:53:20.164Z,4.36
2023-03-27T21:55:53.460Z,4.33
2023-03-27T21:58:27.271Z,4.30
2023-03-27T22:01:01.365Z,4.27
2023-03-27T22:03:35.073Z,4.25
2023-03-27T22:06:13.408Z,4.21
2023-03-27T22:08:45.003Z,4.16
2023-03-27T22:11:18.060Z,4.17
2023-03-27T22:13:51.683Z,4.07
2023-03-27T22:16:25.384Z,4.04
2023-03-27T22:18:59.175Z,3.99
2023-03-27T22:21:32.833Z,3.96
2023-03-27T22:24:07.627Z,3.92
2023-03-27T22:26:41.845Z,3.91
2023-03-27T22:29:15.914Z,3.90
2023-03-27T22:31:49.347Z,3.87
2023-03-27T22:34:22.825Z,3.83
2023-03-27T22:36:58.168Z,3.81
2023-03-27T22:39:31.997Z,3.76
2023-03-27T22:42:05.554Z,3.70
2023-03-27T22:44:38.731Z,3.69
2023-03-27T22:47:12.263Z,3.68
2023-03-27T22:49:45.721Z,3.66
2023-03-27T22:52:19.188Z,3.63
2023-03-27T22:54:52.688Z,3.61
2023-03-27T22:57:26.185Z,3.60
2023-03-27T22:59:59.651Z,3.58
2023-03-27T23:02:34.793Z,3.54
2023-03-27T23:05:10.473Z,3.50
2023-03-27T23:07:43.992Z,3.47
2023-03-27T23:10:17.568Z,3.45
2023-03-27T23:12:51.265Z,3.41
2023-03-27T23:15:30.473Z,3.40
2023-03-27T23:17:59.544Z,3.39
2023-03-27T23:20:33.233Z,3.37
2023-03-27T23:23:06.755Z,3.34
2023-03-27T23:25:41.785Z,3.29
2023-03-27T23:28:15.455Z,3.28
2023-03-27T23:30:56.390Z,3.25
2023-03-27T23:33:31.362Z,3.23
2023-03-27T23:36:06.570Z,3.19
2023-03-27T23:38:40.223Z,3.16
2023-03-27T23:41:15.604Z,3.12
2023-03-27T23:43:49.572Z,3.08
2023-03-27T23:46:22.990Z,3.06
2023-03-27T23:48:56.393Z,3.02
2023-03-27T23:51:29.840Z,3.00
2023-03-27T23:54:03.219Z,2.97
2023-03-27T23:56:36.586Z,2.95
2023-03-27T23:59:09.886Z,2.93
